sensor_id;sensor_type;location;lat;lon;timestamp;temperature;humidity
18252;DHT22;26917;52.328;20.878;2022-09-03T04:49:17;8.30;99.30
18252;DHT22;26917;52.328;20.878;2022-09-03T04:53:22;8.30;99.20
18252;DHT22;26917;52.328;20.878;2022-09-03T05:14:27;8.60;99.50
18252;DHT22;26917;52.328;20.878;2022-09-03T05:25:21;8.80;99.90
18252;DHT22;26917;52.328;20.878;2022-09-03T06:27:54;10.60;98.30
18252;DHT22;26917;52.328;20.878;2022-09-03T06:35:12;10.90;98.20
18252;DHT22;26917;52.328;20.878;2022-09-03T06:38:53;10.90;98.00
18252;DHT22;26917;52.328;20.878;2022-09-03T07:38:49;13.00;96.80
18252;DHT22;26917;52.328;20.878;2022-09-03T07:55:10;13.40;96.50
18252;DHT22;26917;52.328;20.878;2022-09-03T08:11:14;14.20;94.60
18252;DHT22;26917;52.328;20.878;2022-09-03T08:13:53;14.50;93.60
18252;DHT22;26917;52.328;20.878;2022-09-03T08:17:04;14.60;92.20
18252;DHT22;26917;52.328;20.878;2022-09-03T08:20:13;14.90;93.00
18252;DHT22;26917;52.328;20.878;2022-09-03T08:42:57;16.00;91.10
18252;DHT22;26917;52.328;20.878;2022-09-03T08:46:03;16.30;91.50
18252;DHT22;26917;52.328;20.878;2022-09-03T08:52:47;16.40;90.50
18252;DHT22;26917;52.328;20.878;2022-09-03T09:03:36;16.80;89.90
18252;DHT22;26917;52.328;20.878;2022-09-03T09:19:45;17.70;89.30
18252;DHT22;26917;52.328;20.878;2022-09-03T09:40:09;27.20;59.80
18252;DHT22;26917;52.328;20.878;2022-09-03T09:47:43;27.80;55.50
18252;DHT22;26917;52.328;20.878;2022-09-03T09:50:28;27.40;58.50
18252;DHT22;26917;52.328;20.878;2022-09-03T09:53:11;26.80;58.00
18252;DHT22;26917;52.328;20.878;2022-09-03T09:55:51;26.20;58.90
18252;DHT22;26917;52.328;20.878;2022-09-03T10:06:23;23.80;62.80
18252;DHT22;26917;52.328;20.878;2022-09-03T10:28:58;21.40;67.80
18252;DHT22;26917;52.328;20.878;2022-09-03T10:36:33;21.20;71.50
18252;DHT22;26917;52.328;20.878;2022-09-03T10:42:20;21.10;70.90
18252;DHT22;26917;52.328;20.878;2022-09-03T10:43:59;21.10;70.30
18252;DHT22;26917;52.328;20.878;2022-09-03T10:46:49;21.00;63.80
18252;DHT22;26917;52.328;20.878;2022-09-03T10:53:44;20.80;67.80
18252;DHT22;26917;52.328;20.878;2022-09-03T11:00:52;20.60;69.00
18252;DHT22;26917;52.328;20.878;2022-09-03T11:03:43;20.50;69.20
18252;DHT22;26917;52.328;20.878;2022-09-03T11:06:19;20.50;69.60
18252;DHT22;26917;52.328;20.878;2022-09-03T11:08:53;20.50;68.30
18252;DHT22;26917;52.328;20.878;2022-09-03T11:12:16;20.60;68.30
18252;DHT22;26917;52.328;20.878;2022-09-03T11:19:33;20.50;69.60
18252;DHT22;26917;52.328;20.878;2022-09-03T11:22:44;20.50;68.90
18252;DHT22;26917;52.328;20.878;2022-09-03T11:30:32;20.70;66.40
18252;DHT22;26917;52.328;20.878;2022-09-03T11:33:09;20.70;69.80
18252;DHT22;26917;52.328;20.878;2022-09-03T11:36:08;20.80;63.80
18252;DHT22;26917;52.328;20.878;2022-09-03T11:50:03;21.00;65.00
18252;DHT22;26917;52.328;20.878;2022-09-03T11:56:11;21.00;65.50
18252;DHT22;26917;52.328;20.878;2022-09-03T11:58:59;21.10;66.70
18252;DHT22;26917;52.328;20.878;2022-09-03T12:01:32;21.20;67.60
18252;DHT22;26917;52.328;20.878;2022-09-03T12:04:38;21.30;66.80
18252;DHT22;26917;52.328;20.878;2022-09-03T12:07:26;21.30;66.80
18252;DHT22;26917;52.328;20.878;2022-09-03T12:15:12;21.40;66.20
18252;DHT22;26917;52.328;20.878;2022-09-03T12:17:33;21.30;62.30
18252;DHT22;26917;52.328;20.878;2022-09-03T12:29:30;21.50;65.40
18252;DHT22;26917;52.328;20.878;2022-09-03T12:32:49;21.30;65.30
18252;DHT22;26917;52.328;20.878;2022-09-03T12:35:43;21.30;64.60
18252;DHT22;26917;52.328;20.878;2022-09-03T12:43:12;21.20;65.00
18252;DHT22;26917;52.328;20.878;2022-09-03T12:49:45;21.30;65.70
18252;DHT22;26917;52.328;20.878;2022-09-03T12:52:39;21.30;65.70
18252;DHT22;26917;52.328;20.878;2022-09-03T12:55:34;21.40;65.70
18252;DHT22;26917;52.328;20.878;2022-09-03T12:58:19;21.40;65.40
18252;DHT22;26917;52.328;20.878;2022-09-03T13:05:16;21.40;65.70
18252;DHT22;26917;52.328;20.878;2022-09-03T13:08:13;21.50;65.20
18252;DHT22;26917;52.328;20.878;2022-09-03T13:14:56;21.60;59.20
18252;DHT22;26917;52.328;20.878;2022-09-03T13:18:44;21.70;62.60
18252;DHT22;26917;52.328;20.878;2022-09-03T13:22:14;21.60;61.80
18252;DHT22;26917;52.328;20.878;2022-09-03T13:25:14;21.60;62.50
18252;DHT22;26917;52.328;20.878;2022-09-03T13:35:37;21.60;63.30
18252;DHT22;26917;52.328;20.878;2022-09-03T13:42:24;21.70;63.40
18252;DHT22;26917;52.328;20.878;2022-09-03T13:46:42;21.60;63.60
18252;DHT22;26917;52.328;20.878;2022-09-03T13:49:33;21.60;63.30
18252;DHT22;26917;52.328;20.878;2022-09-03T14:13:47;21.60;63.20
18252;DHT22;26917;52.328;20.878;2022-09-03T14:24:33;21.50;62.20
18252;DHT22;26917;52.328;20.878;2022-09-03T14:28:56;21.40;61.90
18252;DHT22;26917;52.328;20.878;2022-09-03T15:17:28;21.00;64.30
18252;DHT22;26917;52.328;20.878;2022-09-03T16:13:39;20.00;68.40
18252;DHT22;26917;52.328;20.878;2022-09-03T16:17:49;19.80;69.20
18252;DHT22;26917;52.328;20.878;2022-09-03T16:25:21;19.50;70.70
18252;DHT22;26917;52.328;20.878;2022-09-03T16:28:04;19.30;70.00
18252;DHT22;26917;52.328;20.878;2022-09-03T16:34:25;19.10;70.70
18252;DHT22;26917;52.328;20.878;2022-09-03T16:38:04;19.00;71.20
18252;DHT22;26917;52.328;20.878;2022-09-03T16:44:13;18.70;72.30
18252;DHT22;26917;52.328;20.878;2022-09-03T16:47:18;18.60;72.30
18252;DHT22;26917;52.328;20.878;2022-09-03T16:50:19;18.50;72.60
18252;DHT22;26917;52.328;20.878;2022-09-03T16:53:15;18.40;73.20
18252;DHT22;26917;52.328;20.878;2022-09-03T16:56:36;18.30;73.30
18252;DHT22;26917;52.328;20.878;2022-09-03T16:59:34;18.20;73.70
18252;DHT22;26917;52.328;20.878;2022-09-03T17:05:46;18.00;74.10
18252;DHT22;26917;52.328;20.878;2022-09-03T17:08:47;18.00;74.80
18252;DHT22;26917;52.328;20.878;2022-09-03T17:12:01;17.80;74.60
18252;DHT22;26917;52.328;20.878;2022-09-03T17:15:39;17.60;74.90
18252;DHT22;26917;52.328;20.878;2022-09-03T17:18:44;17.70;75.30
18252;DHT22;26917;52.328;20.878;2022-09-03T17:21:35;17.50;75.20
18252;DHT22;26917;52.328;20.878;2022-09-03T17:24:36;17.40;76.00
18252;DHT22;26917;52.328;20.878;2022-09-03T17:27:53;17.30;76.00
18252;DHT22;26917;52.328;20.878;2022-09-03T17:30:42;17.20;76.10
18252;DHT22;26917;52.328;20.878;2022-09-03T17:33:47;17.10;76.10
18252;DHT22;26917;52.328;20.878;2022-09-03T17:36:36;17.00;76.50
18252;DHT22;26917;52.328;20.878;2022-09-03T17:39:40;16.90;76.60
18252;DHT22;26917;52.328;20.878;2022-09-03T17:43:03;16.80;76.50
18252;DHT22;26917;52.328;20.878;2022-09-03T17:45:44;16.60;76.70
18252;DHT22;26917;52.328;20.878;2022-09-03T17:48:55;16.60;76.90
18252;DHT22;26917;52.328;20.878;2022-09-03T17:51:38;16.50;77.30
18252;DHT22;26917;52.328;20.878;2022-09-03T17:54:50;16.40;77.20
18252;DHT22;26917;52.328;20.878;2022-09-03T17:57:42;16.30;77.40
18252;DHT22;26917;52.328;20.878;2022-09-03T18:00:22;16.20;77.50
18252;DHT22;26917;52.328;20.878;2022-09-03T18:02:59;16.20;77.80
18252;DHT22;26917;52.328;20.878;2022-09-03T18:05:42;16.10;78.00
18252;DHT22;26917;52.328;20.878;2022-09-03T18:08:32;16.00;78.50
18252;DHT22;26917;52.328;20.878;2022-09-03T18:11:11;15.80;78.60
18252;DHT22;26917;52.328;20.878;2022-09-03T18:13:53;15.80;78.80
18252;DHT22;26917;52.328;20.878;2022-09-03T18:16:29;15.70;78.80
18252;DHT22;26917;52.328;20.878;2022-09-03T18:19:04;15.60;78.90
18252;DHT22;26917;52.328;20.878;2022-09-03T18:21:38;15.50;78.80
18252;DHT22;26917;52.328;20.878;2022-09-03T18:24:46;15.50;79.00
18252;DHT22;26917;52.328;20.878;2022-09-03T18:27:38;15.40;79.40
18252;DHT22;26917;52.328;20.878;2022-09-03T18:30:25;15.40;79.50
18252;DHT22;26917;52.328;20.878;2022-09-03T18:33:13;15.30;79.20
18252;DHT22;26917;52.328;20.878;2022-09-03T18:36:02;15.20;79.40
18252;DHT22;26917;52.328;20.878;2022-09-03T18:38:51;15.20;79.90
18252;DHT22;26917;52.328;20.878;2022-09-03T18:41:59;15.10;80.00
18252;DHT22;26917;52.328;20.878;2022-09-03T18:44:58;15.00;80.40
18252;DHT22;26917;52.328;20.878;2022-09-03T18:48:00;14.90;80.40
18252;DHT22;26917;52.328;20.878;2022-09-03T18:50:57;14.80;80.40
18252;DHT22;26917;52.328;20.878;2022-09-03T18:53:55;14.80;80.60
18252;DHT22;26917;52.328;20.878;2022-09-03T18:56:49;14.80;80.90
18252;DHT22;26917;52.328;20.878;2022-09-03T19:00:08;14.70;81.30
18252;DHT22;26917;52.328;20.878;2022-09-03T19:03:28;14.60;82.30
18252;DHT22;26917;52.328;20.878;2022-09-03T19:06:43;14.60;82.00
18252;DHT22;26917;52.328;20.878;2022-09-03T19:09:47;14.50;82.30
18252;DHT22;26917;52.328;20.878;2022-09-03T19:16:18;14.40;83.20
18252;DHT22;26917;52.328;20.878;2022-09-03T19:19:33;14.20;82.80
18252;DHT22;26917;52.328;20.878;2022-09-03T19:22:29;14.20;83.20
18252;DHT22;26917;52.328;20.878;2022-09-03T19:25:18;14.10;83.00
18252;DHT22;26917;52.328;20.878;2022-09-03T19:28:14;14.10;82.60
18252;DHT22;26917;52.328;20.878;2022-09-03T19:31:26;14.00;82.40
18252;DHT22;26917;52.328;20.878;2022-09-03T19:35:03;14.00;83.20
18252;DHT22;26917;52.328;20.878;2022-09-03T19:38:03;13.90;83.70
18252;DHT22;26917;52.328;20.878;2022-09-03T19:41:10;13.80;83.10
18252;DHT22;26917;52.328;20.878;2022-09-03T19:44:12;13.80;83.80
18252;DHT22;26917;52.328;20.878;2022-09-03T19:47:13;13.70;84.10
18252;DHT22;26917;52.328;20.878;2022-09-03T19:50:28;13.70;84.10
18252;DHT22;26917;52.328;20.878;2022-09-03T19:53:29;13.60;84.70
18252;DHT22;26917;52.328;20.878;2022-09-03T19:56:53;13.50;85.00
18252;DHT22;26917;52.328;20.878;2022-09-03T20:00:20;13.60;85.90
18252;DHT22;26917;52.328;20.878;2022-09-03T20:03:52;13.50;85.00
18252;DHT22;26917;52.328;20.878;2022-09-03T20:07:10;13.50;86.10
18252;DHT22;26917;52.328;20.878;2022-09-03T20:10:42;13.40;85.30
18252;DHT22;26917;52.328;20.878;2022-09-03T20:14:13;13.40;85.60
18252;DHT22;26917;52.328;20.878;2022-09-03T20:17:09;13.30;85.50
18252;DHT22;26917;52.328;20.878;2022-09-03T20:20:28;13.30;86.80
18252;DHT22;26917;52.328;20.878;2022-09-03T20:26:38;13.20;87.40
18252;DHT22;26917;52.328;20.878;2022-09-03T20:29:34;13.30;88.20
18252;DHT22;26917;52.328;20.878;2022-09-03T20:32:12;13.30;89.10
18252;DHT22;26917;52.328;20.878;2022-09-03T20:34:51;13.20;88.90
18252;DHT22;26917;52.328;20.878;2022-09-03T20:37:43;13.20;88.40
18252;DHT22;26917;52.328;20.878;2022-09-03T20:40:36;13.20;88.20
18252;DHT22;26917;52.328;20.878;2022-09-03T20:43:48;13.20;89.50
18252;DHT22;26917;52.328;20.878;2022-09-03T20:46:54;13.10;89.60
18252;DHT22;26917;52.328;20.878;2022-09-03T20:49:40;13.10;90.10
18252;DHT22;26917;52.328;20.878;2022-09-03T20:52:32;13.00;90.20
18252;DHT22;26917;52.328;20.878;2022-09-03T20:56:02;13.00;89.80
18252;DHT22;26917;52.328;20.878;2022-09-03T20:58:57;13.00;90.30
18252;DHT22;26917;52.328;20.878;2022-09-03T21:01:47;13.00;90.90
18252;DHT22;26917;52.328;20.878;2022-09-03T21:04:37;12.90;91.50
18252;DHT22;26917;52.328;20.878;2022-09-03T21:07:25;12.90;91.70
18252;DHT22;26917;52.328;20.878;2022-09-03T21:10:13;12.90;91.60
18252;DHT22;26917;52.328;20.878;2022-09-03T21:13:01;12.80;91.40
18252;DHT22;26917;52.328;20.878;2022-09-03T21:16:08;12.80;92.10
18252;DHT22;26917;52.328;20.878;2022-09-03T21:19:07;12.80;92.40
18252;DHT22;26917;52.328;20.878;2022-09-03T21:21:57;12.80;92.60
18252;DHT22;26917;52.328;20.878;2022-09-03T21:28:18;12.70;92.80
18252;DHT22;26917;52.328;20.878;2022-09-03T21:31:17;12.60;92.50
18252;DHT22;26917;52.328;20.878;2022-09-03T21:35:19;12.60;92.90
18252;DHT22;26917;52.328;20.878;2022-09-03T21:38:46;12.50;93.10
18252;DHT22;26917;52.328;20.878;2022-09-03T21:42:22;12.40;93.10
18252;DHT22;26917;52.328;20.878;2022-09-03T21:50:06;12.30;93.30
18252;DHT22;26917;52.328;20.878;2022-09-03T21:53:47;12.20;93.10
18252;DHT22;26917;52.328;20.878;2022-09-03T21:59:01;12.20;93.30
18252;DHT22;26917;52.328;20.878;2022-09-03T22:04:10;12.10;93.00
18252;DHT22;26917;52.328;20.878;2022-09-03T22:07:35;12.20;92.90
18252;DHT22;26917;52.328;20.878;2022-09-03T22:10:49;12.10;92.80
18252;DHT22;26917;52.328;20.878;2022-09-03T22:13:44;12.00;92.70
18252;DHT22;26917;52.328;20.878;2022-09-03T22:16:24;12.00;92.50
18252;DHT22;26917;52.328;20.878;2022-09-03T22:31:12;11.80;93.00
18252;DHT22;26917;52.328;20.878;2022-09-03T22:35:03;11.60;92.60
18252;DHT22;26917;52.328;20.878;2022-09-03T22:38:28;11.60;92.60
18252;DHT22;26917;52.328;20.878;2022-09-03T22:58:45;11.50;93.50
18252;DHT22;26917;52.328;20.878;2022-09-03T23:01:51;11.40;93.60
18252;DHT22;26917;52.328;20.878;2022-09-03T23:06:19;11.30;93.40
18252;DHT22;26917;52.328;20.878;2022-09-03T23:10:11;11.20;93.50
18252;DHT22;26917;52.328;20.878;2022-09-03T23:23:04;11.20;93.70
